sensor_id;sensor_type;location;lat;lon;timestamp;P1;durP1;ratioP1;P2;durP2;ratioP2
40849;SDS011;26571;41.610;25.380;2022-11-24T00:01:47;1.85;;;0.65;;
40849;SDS011;26571;41.610;25.380;2022-11-24T00:04:13;2.60;;;0.70;;
40849;SDS011;26571;41.610;25.380;2022-11-24T00:06:38;3.80;;;0.80;;
40849;SDS011;26571;41.610;25.380;2022-11-24T00:09:04;5.35;;;0.82;;
40849;SDS011;26571;41.610;25.380;2022-11-24T00:11:30;3.42;;;0.50;;
40849;SDS011;26571;41.610;25.380;2022-11-24T00:13:57;7.70;;;1.05;;
40849;SDS011;26571;41.610;25.380;2022-11-24T00:16:24;1.38;;;0.80;;
40849;SDS011;26571;41.610;25.380;2022-11-24T00:18:50;0.88;;;0.88;;
40849;SDS011;26571;41.610;25.380;2022-11-24T00:21:18;3.08;;;0.75;;
40849;SDS011;26571;41.610;25.380;2022-11-24T00:23:44;2.35;;;0.90;;
40849;SDS011;26571;41.610;25.380;2022-11-24T00:26:11;1.80;;;0.55;;
40849;SDS011;26571;41.610;25.380;2022-11-24T00:28:38;1.98;;;0.85;;
40849;SDS011;26571;41.610;25.380;2022-11-24T00:31:12;3.03;;;0.60;;
40849;SDS011;26571;41.610;25.380;2022-11-24T00:33:41;0.98;;;0.75;;
40849;SDS011;26571;41.610;25.380;2022-11-24T00:36:07;3.90;;;0.63;;
40849;SDS011;26571;41.610;25.380;2022-11-24T00:38:32;0.80;;;0.50;;
40849;SDS011;26571;41.610;25.380;2022-11-24T00:40:57;1.88;;;0.60;;
40849;SDS011;26571;41.610;25.380;2022-11-24T00:43:23;2.45;;;0.60;;
40849;SDS011;26571;41.610;25.380;2022-11-24T00:45:48;1.33;;;0.50;;
40849;SDS011;26571;41.610;25.380;2022-11-24T00:48:14;5.05;;;0.82;;
40849;SDS011;26571;41.610;25.380;2022-11-24T00:50:39;0.95;;;0.70;;
40849;SDS011;26571;41.610;25.380;2022-11-24T00:53:05;4.15;;;0.60;;
40849;SDS011;26571;41.610;25.380;2022-11-24T00:55:30;1.95;;;0.60;;
40849;SDS011;26571;41.610;25.380;2022-11-24T00:57:55;2.85;;;0.85;;
40849;SDS011;26571;41.610;25.380;2022-11-24T01:00:21;2.22;;;1.35;;
40849;SDS011;26571;41.610;25.380;2022-11-24T01:02:46;1.48;;;1.10;;
40849;SDS011;26571;41.610;25.380;2022-11-24T01:05:12;1.25;;;0.57;;
40849;SDS011;26571;41.610;25.380;2022-11-24T01:07:37;3.20;;;1.33;;
40849;SDS011;26571;41.610;25.380;2022-11-24T01:10:03;2.10;;;0.55;;
40849;SDS011;26571;41.610;25.380;2022-11-24T01:12:29;1.63;;;0.60;;
40849;SDS011;26571;41.610;25.380;2022-11-24T01:14:54;3.13;;;0.82;;
40849;SDS011;26571;41.610;25.380;2022-11-24T01:17:20;1.50;;;0.40;;
40849;SDS011;26571;41.610;25.380;2022-11-24T01:19:45;7.43;;;2.05;;
40849;SDS011;26571;41.610;25.380;2022-11-24T01:22:13;1.95;;;0.93;;
40849;SDS011;26571;41.610;25.380;2022-11-24T01:24:39;1.77;;;0.70;;
40849;SDS011;26571;41.610;25.380;2022-11-24T01:27:05;2.03;;;0.63;;
40849;SDS011;26571;41.610;25.380;2022-11-24T01:29:30;3.13;;;0.95;;
40849;SDS011;26571;41.610;25.380;2022-11-24T01:31:55;2.97;;;0.80;;
40849;SDS011;26571;41.610;25.380;2022-11-24T01:34:21;4.22;;;0.73;;
40849;SDS011;26571;41.610;25.380;2022-11-24T01:36:46;1.42;;;0.55;;
40849;SDS011;26571;41.610;25.380;2022-11-24T01:39:12;1.83;;;0.50;;
40849;SDS011;26571;41.610;25.380;2022-11-24T01:41:38;0.77;;;0.40;;
40849;SDS011;26571;41.610;25.380;2022-11-24T01:44:20;1.65;;;0.73;;
40849;SDS011;26571;41.610;25.380;2022-11-24T01:47:33;1.25;;;0.55;;
40849;SDS011;26571;41.610;25.380;2022-11-24T01:49:57;0.85;;;0.73;;
40849;SDS011;26571;41.610;25.380;2022-11-24T01:52:33;2.20;;;0.75;;
40849;SDS011;26571;41.610;25.380;2022-11-24T01:55:10;3.22;;;1.27;;
40849;SDS011;26571;41.610;25.380;2022-11-24T01:57:43;0.60;;;0.60;;
40849;SDS011;26571;41.610;25.380;2022-11-24T02:00:20;1.30;;;1.20;;
40849;SDS011;26571;41.610;25.380;2022-11-24T02:02:46;0.52;;;0.52;;
40849;SDS011;26571;41.610;25.380;2022-11-24T02:05:16;0.50;;;0.50;;
40849;SDS011;26571;41.610;25.380;2022-11-24T02:07:45;3.28;;;0.50;;
40849;SDS011;26571;41.610;25.380;2022-11-24T02:10:12;0.63;;;0.40;;
40849;SDS011;26571;41.610;25.380;2022-11-24T02:12:40;0.60;;;0.50;;
40849;SDS011;26571;41.610;25.380;2022-11-24T02:15:09;0.60;;;0.60;;
40849;SDS011;26571;41.610;25.380;2022-11-24T02:17:36;0.77;;;0.40;;
40849;SDS011;26571;41.610;25.380;2022-11-24T02:20:02;1.48;;;0.77;;
40849;SDS011;26571;41.610;25.380;2022-11-24T02:22:45;2.65;;;1.48;;
40849;SDS011;26571;41.610;25.380;2022-11-24T02:28:15;0.80;;;0.50;;
40849;SDS011;26571;41.610;25.380;2022-11-24T02:30:43;0.73;;;0.55;;
40849;SDS011;26571;41.610;25.380;2022-11-24T02:33:09;3.70;;;0.50;;
40849;SDS011;26571;41.610;25.380;2022-11-24T02:35:36;2.88;;;0.60;;
40849;SDS011;26571;41.610;25.380;2022-11-24T02:38:01;3.33;;;0.50;;
40849;SDS011;26571;41.610;25.380;2022-11-24T02:40:27;6.47;;;0.80;;
40849;SDS011;26571;41.610;25.380;2022-11-24T02:43:04;2.30;;;0.68;;
40849;SDS011;26571;41.610;25.380;2022-11-24T02:45:34;1.48;;;0.65;;
40849;SDS011;26571;41.610;25.380;2022-11-24T02:47:59;1.70;;;0.93;;
40849;SDS011;26571;41.610;25.380;2022-11-24T02:50:24;5.10;;;0.73;;
40849;SDS011;26571;41.610;25.380;2022-11-24T02:52:50;2.20;;;0.55;;
40849;SDS011;26571;41.610;25.380;2022-11-24T02:55:15;2.38;;;0.68;;
40849;SDS011;26571;41.610;25.380;2022-11-24T02:57:41;1.33;;;1.00;;
40849;SDS011;26571;41.610;25.380;2022-11-24T03:00:07;2.88;;;0.73;;
40849;SDS011;26571;41.610;25.380;2022-11-24T03:02:33;5.43;;;0.52;;
40849;SDS011;26571;41.610;25.380;2022-11-24T03:04:58;1.67;;;0.60;;
40849;SDS011;26571;41.610;25.380;2022-11-24T03:07:24;1.95;;;0.45;;
40849;SDS011;26571;41.610;25.380;2022-11-24T03:09:49;2.85;;;0.60;;
40849;SDS011;26571;41.610;25.380;2022-11-24T03:12:15;0.68;;;0.57;;
40849;SDS011;26571;41.610;25.380;2022-11-24T03:14:40;2.58;;;1.23;;
40849;SDS011;26571;41.610;25.380;2022-11-24T03:17:06;1.60;;;0.50;;
40849;SDS011;26571;41.610;25.380;2022-11-24T03:19:31;0.80;;;0.70;;
40849;SDS011;26571;41.610;25.380;2022-11-24T03:21:57;1.58;;;0.60;;
40849;SDS011;26571;41.610;25.380;2022-11-24T03:24:23;3.72;;;0.88;;
40849;SDS011;26571;41.610;25.380;2022-11-24T03:26:48;6.25;;;1.85;;
40849;SDS011;26571;41.610;25.380;2022-11-24T03:29:13;2.38;;;0.95;;
40849;SDS011;26571;41.610;25.380;2022-11-24T03:31:39;1.35;;;0.82;;
40849;SDS011;26571;41.610;25.380;2022-11-24T03:34:04;2.70;;;1.85;;
40849;SDS011;26571;41.610;25.380;2022-11-24T03:36:30;2.08;;;1.30;;
40849;SDS011;26571;41.610;25.380;2022-11-24T03:38:55;3.13;;;1.13;;
40849;SDS011;26571;41.610;25.380;2022-11-24T03:41:20;1.80;;;1.05;;
40849;SDS011;26571;41.610;25.380;2022-11-24T03:43:46;2.35;;;1.15;;
40849;SDS011;26571;41.610;25.380;2022-11-24T03:46:11;3.63;;;1.08;;
40849;SDS011;26571;41.610;25.380;2022-11-24T03:48:37;2.42;;;1.02;;
40849;SDS011;26571;41.610;25.380;2022-11-24T03:51:03;11.60;;;5.93;;
40849;SDS011;26571;41.610;25.380;2022-11-24T03:53:29;8.77;;;5.82;;
40849;SDS011;26571;41.610;25.380;2022-11-24T03:55:56;6.72;;;3.83;;
40849;SDS011;26571;41.610;25.380;2022-11-24T03:58:22;4.22;;;1.73;;
40849;SDS011;26571;41.610;25.380;2022-11-24T04:00:48;3.80;;;3.50;;
40849;SDS011;26571;41.610;25.380;2022-11-24T04:03:15;1.90;;;0.90;;
40849;SDS011;26571;41.610;25.380;2022-11-24T04:05:41;1.60;;;1.50;;
40849;SDS011;26571;41.610;25.380;2022-11-24T04:08:06;2.85;;;0.68;;
40849;SDS011;26571;41.610;25.380;2022-11-24T04:10:33;2.88;;;0.63;;
40849;SDS011;26571;41.610;25.380;2022-11-24T04:13:00;5.75;;;1.30;;
40849;SDS011;26571;41.610;25.380;2022-11-24T04:15:27;2.33;;;1.73;;
40849;SDS011;26571;41.610;25.380;2022-11-24T04:17:53;2.75;;;1.52;;
40849;SDS011;26571;41.610;25.380;2022-11-24T04:20:19;1.30;;;1.23;;
40849;SDS011;26571;41.610;25.380;2022-11-24T04:22:45;3.08;;;0.77;;
40849;SDS011;26571;41.610;25.380;2022-11-24T04:25:11;3.83;;;0.98;;
40849;SDS011;26571;41.610;25.380;2022-11-24T04:27:37;4.35;;;2.42;;
40849;SDS011;26571;41.610;25.380;2022-11-24T04:30:03;3.60;;;2.47;;
40849;SDS011;26571;41.610;25.380;2022-11-24T04:32:31;3.90;;;1.98;;
40849;SDS011;26571;41.610;25.380;2022-11-24T04:34:56;2.83;;;2.42;;
40849;SDS011;26571;41.610;25.380;2022-11-24T04:37:22;3.55;;;1.85;;
40849;SDS011;26571;41.610;25.380;2022-11-24T04:39:47;2.28;;;2.08;;
40849;SDS011;26571;41.610;25.380;2022-11-24T04:42:13;2.05;;;1.95;;
40849;SDS011;26571;41.610;25.380;2022-11-24T04:44:39;4.28;;;2.30;;
40849;SDS011;26571;41.610;25.380;2022-11-24T04:47:04;9.60;;;2.10;;
40849;SDS011;26571;41.610;25.380;2022-11-24T04:49:29;2.20;;;1.10;;
40849;SDS011;26571;41.610;25.380;2022-11-24T04:51:55;2.75;;;2.00;;
40849;SDS011;26571;41.610;25.380;2022-11-24T04:54:20;6.22;;;3.83;;
40849;SDS011;26571;41.610;25.380;2022-11-24T04:56:49;2.80;;;2.28;;
40849;SDS011;26571;41.610;25.380;2022-11-24T04:59:15;6.78;;;4.50;;
40849;SDS011;26571;41.610;25.380;2022-11-24T05:01:42;4.82;;;3.42;;
40849;SDS011;26571;41.610;25.380;2022-11-24T05:04:09;3.78;;;2.28;;
40849;SDS011;26571;41.610;25.380;2022-11-24T05:09:01;12.95;;;9.40;;
40849;SDS011;26571;41.610;25.380;2022-11-24T05:11:27;12.57;;;8.80;;
40849;SDS011;26571;41.610;25.380;2022-11-24T05:13:53;3.72;;;3.25;;
40849;SDS011;26571;41.610;25.380;2022-11-24T05:16:18;3.20;;;2.10;;
40849;SDS011;26571;41.610;25.380;2022-11-24T05:18:44;2.15;;;2.05;;
40849;SDS011;26571;41.610;25.380;2022-11-24T05:21:09;4.35;;;2.47;;
40849;SDS011;26571;41.610;25.380;2022-11-24T05:23:35;2.67;;;2.47;;
40849;SDS011;26571;41.610;25.380;2022-11-24T05:26:00;2.05;;;1.95;;
40849;SDS011;26571;41.610;25.380;2022-11-24T05:28:26;3.25;;;3.05;;
40849;SDS011;26571;41.610;25.380;2022-11-24T05:30:52;4.72;;;4.43;;
40849;SDS011;26571;41.610;25.380;2022-11-24T05:33:18;3.35;;;3.05;;
40849;SDS011;26571;41.610;25.380;2022-11-24T05:35:50;4.22;;;1.67;;
40849;SDS011;26571;41.610;25.380;2022-11-24T05:38:16;3.75;;;2.45;;
40849;SDS011;26571;41.610;25.380;2022-11-24T05:40:42;6.65;;;3.78;;
40849;SDS011;26571;41.610;25.380;2022-11-24T05:43:11;11.27;;;6.97;;
40849;SDS011;26571;41.610;25.380;2022-11-24T05:45:38;5.68;;;4.97;;
40849;SDS011;26571;41.610;25.380;2022-11-24T05:48:09;4.22;;;3.60;;
40849;SDS011;26571;41.610;25.380;2022-11-24T05:50:36;7.07;;;5.40;;
40849;SDS011;26571;41.610;25.380;2022-11-24T05:53:08;6.20;;;4.70;;
40849;SDS011;26571;41.610;25.380;2022-11-24T05:55:36;10.40;;;4.45;;
40849;SDS011;26571;41.610;25.380;2022-11-24T05:58:03;8.30;;;5.72;;
40849;SDS011;26571;41.610;25.380;2022-11-24T06:00:31;6.30;;;3.80;;
40849;SDS011;26571;41.610;25.380;2022-11-24T06:02:57;3.60;;;1.48;;
40849;SDS011;26571;41.610;25.380;2022-11-24T06:05:23;1.10;;;1.00;;
40849;SDS011;26571;41.610;25.380;2022-11-24T06:07:50;1.80;;;0.70;;
40849;SDS011;26571;41.610;25.380;2022-11-24T06:10:16;0.50;;;0.50;;
40849;SDS011;26571;41.610;25.380;2022-11-24T06:12:43;3.13;;;1.75;;
40849;SDS011;26571;41.610;25.380;2022-11-24T06:15:08;4.43;;;1.88;;
40849;SDS011;26571;41.610;25.380;2022-11-24T06:17:35;0.77;;;0.75;;
40849;SDS011;26571;41.610;25.380;2022-11-24T06:20:00;1.02;;;1.02;;
40849;SDS011;26571;41.610;25.380;2022-11-24T06:22:26;1.67;;;1.48;;
40849;SDS011;26571;41.610;25.380;2022-11-24T06:24:51;2.03;;;0.70;;
40849;SDS011;26571;41.610;25.380;2022-11-24T06:27:17;1.00;;;1.00;;
40849;SDS011;26571;41.610;25.380;2022-11-24T06:29:43;2.55;;;0.60;;
40849;SDS011;26571;41.610;25.380;2022-11-24T06:32:08;0.60;;;0.60;;
40849;SDS011;26571;41.610;25.380;2022-11-24T06:34:34;2.22;;;1.52;;
40849;SDS011;26571;41.610;25.380;2022-11-24T06:36:59;0.65;;;0.65;;
40849;SDS011;26571;41.610;25.380;2022-11-24T06:39:25;1.10;;;0.80;;
40849;SDS011;26571;41.610;25.380;2022-11-24T06:41:50;3.95;;;1.00;;
40849;SDS011;26571;41.610;25.380;2022-11-24T06:44:17;3.17;;;2.90;;
40849;SDS011;26571;41.610;25.380;2022-11-24T06:46:42;2.15;;;1.50;;
40849;SDS011;26571;41.610;25.380;2022-11-24T06:49:08;1.98;;;1.67;;
40849;SDS011;26571;41.610;25.380;2022-11-24T06:51:33;2.80;;;2.33;;
40849;SDS011;26571;41.610;25.380;2022-11-24T06:53:59;0.40;;;0.40;;
40849;SDS011;26571;41.610;25.380;2022-11-24T06:56:24;2.35;;;2.08;;
40849;SDS011;26571;41.610;25.380;2022-11-24T06:58:50;2.20;;;2.10;;
40849;SDS011;26571;41.610;25.380;2022-11-24T07:01:17;1.65;;;1.55;;
40849;SDS011;26571;41.610;25.380;2022-11-24T07:03:45;0.45;;;0.40;;
40849;SDS011;26571;41.610;25.380;2022-11-24T07:06:12;0.47;;;0.47;;
40849;SDS011;26571;41.610;25.380;2022-11-24T07:08:38;0.57;;;0.50;;
40849;SDS011;26571;41.610;25.380;2022-11-24T07:11:07;0.73;;;0.50;;
40849;SDS011;26571;41.610;25.380;2022-11-24T07:13:34;3.88;;;0.40;;
40849;SDS011;26571;41.610;25.380;2022-11-24T07:15:59;0.50;;;0.40;;
40849;SDS011;26571;41.610;25.380;2022-11-24T07:18:36;1.23;;;0.80;;
40849;SDS011;26571;41.610;25.380;2022-11-24T07:21:05;2.35;;;0.50;;
40849;SDS011;26571;41.610;25.380;2022-11-24T07:23:30;0.40;;;0.40;;
40849;SDS011;26571;41.610;25.380;2022-11-24T07:25:56;1.52;;;0.85;;
40849;SDS011;26571;41.610;25.380;2022-11-24T07:28:21;2.15;;;0.60;;
40849;SDS011;26571;41.610;25.380;2022-11-24T07:30:47;3.85;;;1.95;;
40849;SDS011;26571;41.610;25.380;2022-11-24T07:33:12;2.70;;;2.50;;
40849;SDS011;26571;41.610;25.380;2022-11-24T07:35:37;3.97;;;3.65;;
40849;SDS011;26571;41.610;25.380;2022-11-24T07:38:03;6.75;;;3.38;;
40849;SDS011;26571;41.610;25.380;2022-11-24T07:40:28;3.47;;;2.88;;
40849;SDS011;26571;41.610;25.380;2022-11-24T07:42:54;7.00;;;5.78;;
40849;SDS011;26571;41.610;25.380;2022-11-24T07:45:19;4.53;;;3.45;;
40849;SDS011;26571;41.610;25.380;2022-11-24T07:47:45;2.75;;;2.28;;
40849;SDS011;26571;41.610;25.380;2022-11-24T07:50:10;4.53;;;1.55;;
40849;SDS011;26571;41.610;25.380;2022-11-24T07:52:36;4.97;;;2.63;;
40849;SDS011;26571;41.610;25.380;2022-11-24T07:55:03;3.55;;;3.10;;
40849;SDS011;26571;41.610;25.380;2022-11-24T07:57:29;1.45;;;1.10;;
40849;SDS011;26571;41.610;25.380;2022-11-24T07:59:55;2.08;;;1.65;;
40849;SDS011;26571;41.610;25.380;2022-11-24T08:02:21;4.60;;;2.20;;
40849;SDS011;26571;41.610;25.380;2022-11-24T08:04:46;1.20;;;1.05;;
40849;SDS011;26571;41.610;25.380;2022-11-24T08:07:11;0.82;;;0.43;;
40849;SDS011;26571;41.610;25.380;2022-11-24T08:09:37;1.63;;;0.60;;
40849;SDS011;26571;41.610;25.380;2022-11-24T08:12:02;2.08;;;1.25;;
40849;SDS011;26571;41.610;25.380;2022-11-24T08:14:28;1.48;;;1.17;;
40849;SDS011;26571;41.610;25.380;2022-11-24T08:16:53;1.15;;;0.70;;
40849;SDS011;26571;41.610;25.380;2022-11-24T08:19:20;1.88;;;0.63;;
40849;SDS011;26571;41.610;25.380;2022-11-24T08:21:46;1.27;;;0.77;;
40849;SDS011;26571;41.610;25.380;2022-11-24T08:24:11;1.73;;;0.50;;
40849;SDS011;26571;41.610;25.380;2022-11-24T08:26:39;1.08;;;0.95;;
40849;SDS011;26571;41.610;25.380;2022-11-24T08:29:05;1.10;;;1.00;;
40849;SDS011;26571;41.610;25.380;2022-11-24T08:31:30;2.10;;;0.82;;
40849;SDS011;26571;41.610;25.380;2022-11-24T08:34:00;1.75;;;0.60;;
40849;SDS011;26571;41.610;25.380;2022-11-24T08:36:27;3.40;;;0.73;;
40849;SDS011;26571;41.610;25.380;2022-11-24T08:38:53;1.58;;;0.95;;
40849;SDS011;26571;41.610;25.380;2022-11-24T08:41:20;1.35;;;0.40;;
40849;SDS011;26571;41.610;25.380;2022-11-24T08:43:46;1.02;;;0.50;;
40849;SDS011;26571;41.610;25.380;2022-11-24T08:46:12;0.90;;;0.52;;
40849;SDS011;26571;41.610;25.380;2022-11-24T08:48:41;0.90;;;0.73;;
40849;SDS011;26571;41.610;25.380;2022-11-24T08:51:08;1.33;;;0.52;;
40849;SDS011;26571;41.610;25.380;2022-11-24T08:53:34;1.25;;;0.40;;
40849;SDS011;26571;41.610;25.380;2022-11-24T08:56:00;2.78;;;0.60;;
40849;SDS011;26571;41.610;25.380;2022-11-24T08:58:27;1.38;;;0.60;;
40849;SDS011;26571;41.610;25.380;2022-11-24T09:00:53;2.45;;;0.90;;
40849;SDS011;26571;41.610;25.380;2022-11-24T09:03:18;1.67;;;0.60;;
40849;SDS011;26571;41.610;25.380;2022-11-24T09:05:44;1.85;;;0.50;;
40849;SDS011;26571;41.610;25.380;2022-11-24T09:08:09;0.90;;;0.88;;
40849;SDS011;26571;41.610;25.380;2022-11-24T09:10:35;1.20;;;0.47;;
40849;SDS011;26571;41.610;25.380;2022-11-24T09:13:00;1.15;;;0.85;;
40849;SDS011;26571;41.610;25.380;2022-11-24T09:15:26;0.80;;;0.40;;
40849;SDS011;26571;41.610;25.380;2022-11-24T09:17:52;4.50;;;0.73;;
40849;SDS011;26571;41.610;25.380;2022-11-24T09:20:17;1.05;;;1.02;;
40849;SDS011;26571;41.610;25.380;2022-11-24T09:22:42;1.85;;;0.90;;
40849;SDS011;26571;41.610;25.380;2022-11-24T09:25:08;1.90;;;1.27;;
40849;SDS011;26571;41.610;25.380;2022-11-24T09:27:34;0.60;;;0.60;;
40849;SDS011;26571;41.610;25.380;2022-11-24T09:30:00;1.70;;;1.07;;
40849;SDS011;26571;41.610;25.380;2022-11-24T09:32:27;0.70;;;0.70;;
40849;SDS011;26571;41.610;25.380;2022-11-24T09:34:54;1.25;;;0.70;;
40849;SDS011;26571;41.610;25.380;2022-11-24T09:37:19;1.30;;;1.20;;
40849;SDS011;26571;41.610;25.380;2022-11-24T09:39:44;3.38;;;0.93;;
40849;SDS011;26571;41.610;25.380;2022-11-24T09:42:31;0.93;;;0.90;;
40849;SDS011;26571;41.610;25.380;2022-11-24T09:45:18;1.48;;;1.38;;
40849;SDS011;26571;41.610;25.380;2022-11-24T09:50:38;2.35;;;0.80;;
40849;SDS011;26571;41.610;25.380;2022-11-24T09:53:09;2.28;;;1.20;;
40849;SDS011;26571;41.610;25.380;2022-11-24T09:55:43;1.73;;;1.60;;
40849;SDS011;26571;41.610;25.380;2022-11-24T10:01:36;2.25;;;1.90;;
40849;SDS011;26571;41.610;25.380;2022-11-24T10:03:55;2.40;;;1.95;;
40849;SDS011;26571;41.610;25.380;2022-11-24T10:06:28;2.33;;;2.13;;
40849;SDS011;26571;41.610;25.380;2022-11-24T10:11:52;2.38;;;2.17;;
40849;SDS011;26571;41.610;25.380;2022-11-24T10:14:38;1.65;;;1.55;;
40849;SDS011;26571;41.610;25.380;2022-11-24T10:20:02;3.85;;;2.55;;
40849;SDS011;26571;41.610;25.380;2022-11-24T10:22:55;2.72;;;1.92;;
40849;SDS011;26571;41.610;25.380;2022-11-24T10:28:04;3.85;;;1.98;;
40849;SDS011;26571;41.610;25.380;2022-11-24T10:30:36;2.10;;;1.80;;
40849;SDS011;26571;41.610;25.380;2022-11-24T10:33:20;4.43;;;1.80;;
40849;SDS011;26571;41.610;25.380;2022-11-24T10:35:55;4.28;;;2.28;;
40849;SDS011;26571;41.610;25.380;2022-11-24T10:38:30;1.85;;;1.10;;
40849;SDS011;26571;41.610;25.380;2022-11-24T10:43:40;2.03;;;1.52;;
40849;SDS011;26571;41.610;25.380;2022-11-24T10:46:13;2.63;;;1.65;;
40849;SDS011;26571;41.610;25.380;2022-11-24T10:48:48;3.30;;;2.08;;
40849;SDS011;26571;41.610;25.380;2022-11-24T10:53:56;1.63;;;1.52;;
40849;SDS011;26571;41.610;25.380;2022-11-24T10:56:26;4.00;;;1.00;;
40849;SDS011;26571;41.610;25.380;2022-11-24T11:01:54;2.53;;;1.08;;
40849;SDS011;26571;41.610;25.380;2022-11-24T11:04:28;0.85;;;0.73;;
40849;SDS011;26571;41.610;25.380;2022-11-24T11:09:38;1.98;;;1.88;;
40849;SDS011;26571;41.610;25.380;2022-11-24T11:12:11;2.55;;;1.52;;
40849;SDS011;26571;41.610;25.380;2022-11-24T11:14:45;1.83;;;0.98;;
40849;SDS011;26571;41.610;25.380;2022-11-24T11:17:33;1.15;;;1.00;;
40849;SDS011;26571;41.610;25.380;2022-11-24T11:20:06;3.00;;;1.20;;
40849;SDS011;26571;41.610;25.380;2022-11-24T11:22:42;2.75;;;0.77;;
40849;SDS011;26571;41.610;25.380;2022-11-24T11:27:35;0.93;;;0.63;;
40849;SDS011;26571;41.610;25.380;2022-11-24T11:32:58;1.45;;;0.88;;
40849;SDS011;26571;41.610;25.380;2022-11-24T11:35:26;3.03;;;0.90;;
40849;SDS011;26571;41.610;25.380;2022-11-24T11:37:54;3.50;;;0.90;;
40849;SDS011;26571;41.610;25.380;2022-11-24T11:40:26;1.20;;;0.90;;
40849;SDS011;26571;41.610;25.380;2022-11-24T11:43:01;2.20;;;1.33;;
40849;SDS011;26571;41.610;25.380;2022-11-24T11:45:36;1.20;;;0.97;;
40849;SDS011;26571;41.610;25.380;2022-11-24T12:01:35;2.53;;;0.88;;
40849;SDS011;26571;41.610;25.380;2022-11-24T12:04:13;2.92;;;2.08;;
40849;SDS011;26571;41.610;25.380;2022-11-24T12:15:15;1.70;;;1.10;;
40849;SDS011;26571;41.610;25.380;2022-11-24T12:18:02;1.52;;;0.70;;
40849;SDS011;26571;41.610;25.380;2022-11-24T12:26:24;1.52;;;0.90;;
40849;SDS011;26571;41.610;25.380;2022-11-24T12:31:40;1.35;;;0.80;;
40849;SDS011;26571;41.610;25.380;2022-11-24T12:50:39;1.15;;;0.90;;
40849;SDS011;26571;41.610;25.380;2022-11-24T12:53:14;1.75;;;0.50;;
40849;SDS011;26571;41.610;25.380;2022-11-24T12:55:44;1.60;;;0.30;;
40849;SDS011;26571;41.610;25.380;2022-11-24T13:09:11;2.67;;;0.45;;
40849;SDS011;26571;41.610;25.380;2022-11-24T13:16:57;0.50;;;0.38;;
40849;SDS011;26571;41.610;25.380;2022-11-24T13:19:23;4.40;;;2.85;;
40849;SDS011;26571;41.610;25.380;2022-11-24T13:24:32;4.93;;;2.30;;
40849;SDS011;26571;41.610;25.380;2022-11-24T13:37:17;2.95;;;1.30;;
40849;SDS011;26571;41.610;25.380;2022-11-24T13:39:50;4.10;;;0.93;;
40849;SDS011;26571;41.610;25.380;2022-11-24T13:43:17;3.00;;;1.52;;
40849;SDS011;26571;41.610;25.380;2022-11-24T14:12:09;1.55;;;1.05;;
40849;SDS011;26571;41.610;25.380;2022-11-24T14:14:36;6.32;;;2.47;;
40849;SDS011;26571;41.610;25.380;2022-11-24T14:24:55;4.95;;;0.60;;
40849;SDS011;26571;41.610;25.380;2022-11-24T14:27:26;3.35;;;0.70;;
40849;SDS011;26571;41.610;25.380;2022-11-24T14:29:58;3.42;;;1.52;;
40849;SDS011;26571;41.610;25.380;2022-11-24T14:32:26;14.30;;;7.55;;
40849;SDS011;26571;41.610;25.380;2022-11-24T14:34:52;9.50;;;4.30;;
40849;SDS011;26571;41.610;25.380;2022-11-24T14:37:18;7.70;;;2.20;;
40849;SDS011;26571;41.610;25.380;2022-11-24T14:39:44;7.05;;;3.10;;
40849;SDS011;26571;41.610;25.380;2022-11-24T14:44:50;7.05;;;3.17;;
40849;SDS011;26571;41.610;25.380;2022-11-24T14:49:48;6.43;;;2.55;;
40849;SDS011;26571;41.610;25.380;2022-11-24T14:52:15;12.25;;;2.47;;
40849;SDS011;26571;41.610;25.380;2022-11-24T14:54:50;8.90;;;4.22;;
40849;SDS011;26571;41.610;25.380;2022-11-24T15:05:16;7.70;;;3.55;;
40849;SDS011;26571;41.610;25.380;2022-11-24T15:07:47;8.02;;;4.45;;
40849;SDS011;26571;41.610;25.380;2022-11-24T15:10:16;8.68;;;3.88;;
40849;SDS011;26571;41.610;25.380;2022-11-24T15:12:48;7.40;;;4.18;;
40849;SDS011;26571;41.610;25.380;2022-11-24T15:15:18;7.05;;;3.92;;
40849;SDS011;26571;41.610;25.380;2022-11-24T15:17:50;5.45;;;3.78;;
40849;SDS011;26571;41.610;25.380;2022-11-24T15:25:44;2.00;;;1.75;;
40849;SDS011;26571;41.610;25.380;2022-11-24T15:28:10;0.80;;;0.80;;
40849;SDS011;26571;41.610;25.380;2022-11-24T15:30:36;0.70;;;0.70;;
40849;SDS011;26571;41.610;25.380;2022-11-24T15:33:02;0.95;;;0.47;;
40849;SDS011;26571;41.610;25.380;2022-11-24T15:35:30;1.42;;;1.00;;
40849;SDS011;26571;41.610;25.380;2022-11-24T15:37:56;0.70;;;0.60;;
40849;SDS011;26571;41.610;25.380;2022-11-24T15:40:22;4.97;;;2.03;;
40849;SDS011;26571;41.610;25.380;2022-11-24T15:42:52;2.15;;;1.15;;
40849;SDS011;26571;41.610;25.380;2022-11-24T15:45:19;1.00;;;0.90;;
40849;SDS011;26571;41.610;25.380;2022-11-24T15:47:45;1.58;;;0.60;;
40849;SDS011;26571;41.610;25.380;2022-11-24T15:50:11;2.75;;;1.63;;
40849;SDS011;26571;41.610;25.380;2022-11-24T15:52:38;2.50;;;1.90;;
40849;SDS011;26571;41.610;25.380;2022-11-24T15:55:04;2.60;;;1.98;;
40849;SDS011;26571;41.610;25.380;2022-11-24T15:57:33;0.80;;;0.70;;
40849;SDS011;26571;41.610;25.380;2022-11-24T15:59:58;3.78;;;1.42;;
40849;SDS011;26571;41.610;25.380;2022-11-24T16:02:24;2.80;;;1.60;;
40849;SDS011;26571;41.610;25.380;2022-11-24T16:04:50;1.45;;;1.00;;
40849;SDS011;26571;41.610;25.380;2022-11-24T16:07:16;3.33;;;3.03;;
40849;SDS011;26571;41.610;25.380;2022-11-24T16:09:41;4.20;;;1.48;;
40849;SDS011;26571;41.610;25.380;2022-11-24T16:12:07;4.10;;;2.35;;
40849;SDS011;26571;41.610;25.380;2022-11-24T16:14:33;4.35;;;3.67;;
40849;SDS011;26571;41.610;25.380;2022-11-24T16:16:58;2.30;;;2.20;;
40849;SDS011;26571;41.610;25.380;2022-11-24T16:19:24;4.82;;;4.43;;
40849;SDS011;26571;41.610;25.380;2022-11-24T16:21:49;12.25;;;7.55;;
40849;SDS011;26571;41.610;25.380;2022-11-24T16:24:15;21.27;;;13.27;;
40849;SDS011;26571;41.610;25.380;2022-11-24T16:26:40;12.00;;;7.45;;
40849;SDS011;26571;41.610;25.380;2022-11-24T16:29:05;6.18;;;4.25;;
40849;SDS011;26571;41.610;25.380;2022-11-24T16:31:31;3.50;;;3.20;;
40849;SDS011;26571;41.610;25.380;2022-11-24T16:33:56;3.38;;;2.35;;
40849;SDS011;26571;41.610;25.380;2022-11-24T16:36:22;3.67;;;2.88;;
40849;SDS011;26571;41.610;25.380;2022-11-24T16:38:48;2.60;;;2.40;;
40849;SDS011;26571;41.610;25.380;2022-11-24T16:41:13;2.33;;;2.13;;
40849;SDS011;26571;41.610;25.380;2022-11-24T16:43:39;3.60;;;2.60;;
40849;SDS011;26571;41.610;25.380;2022-11-24T16:46:18;3.42;;;1.60;;
40849;SDS011;26571;41.610;25.380;2022-11-24T16:48:46;1.15;;;1.05;;
40849;SDS011;26571;41.610;25.380;2022-11-24T16:51:13;1.63;;;1.52;;
40849;SDS011;26571;41.610;25.380;2022-11-24T16:53:39;1.70;;;1.17;;
40849;SDS011;26571;41.610;25.380;2022-11-24T16:56:05;2.33;;;2.22;;
40849;SDS011;26571;41.610;25.380;2022-11-24T16:58:31;2.67;;;1.80;;
40849;SDS011;26571;41.610;25.380;2022-11-24T17:01:04;2.15;;;2.05;;
40849;SDS011;26571;41.610;25.380;2022-11-24T17:03:37;7.13;;;5.00;;
40849;SDS011;26571;41.610;25.380;2022-11-24T17:06:06;3.20;;;1.13;;
40849;SDS011;26571;41.610;25.380;2022-11-24T17:08:34;1.98;;;1.48;;
40849;SDS011;26571;41.610;25.380;2022-11-24T17:11:08;2.65;;;1.60;;
40849;SDS011;26571;41.610;25.380;2022-11-24T17:13:34;1.88;;;1.77;;
40849;SDS011;26571;41.610;25.380;2022-11-24T17:16:03;3.50;;;2.90;;
40849;SDS011;26571;41.610;25.380;2022-11-24T17:18:32;1.00;;;1.00;;
40849;SDS011;26571;41.610;25.380;2022-11-24T17:20:58;0.50;;;0.50;;
40849;SDS011;26571;41.610;25.380;2022-11-24T17:23:25;1.10;;;1.10;;